Time;durP1;ratioP1;P1;durP2;ratioP2;P2;SDS_P1;SDS_P2;PMS_P1;PMS_P2;Temp;Humidity;BMP_temperature;BMP_pressure;BME280_temperature;BME280_humidity;BME280_pressure;Samples;Min_cycle;Max_cycle;Signal;HPM_P1;HPM_P2
2022/01/11 00:01:31;;;;;;;25.75;7.63;;;;;;;-0.42;100.00;102815.75;6334825;28;20449;-80
2022/01/11 00:04:33;;;;;;;13.52;7.03;;;;;;;-0.42;100.00;102818.34;6352762;28;20050;-79
2022/01/11 00:07:35;;;;;;;18.38;6.28;;;;;;;-0.44;100.00;102831.22;6352647;28;20039;-80
2022/01/11 00:10:47;;;;;;;12.32;6.22;;;;;;;-0.43;100.00;102822.66;6352563;28;20048;-80
2022/01/11 00:13:49;;;;;;;15.02;5.75;;;;;;;-0.43;100.00;102829.53;6351313;28;20051;-80
2022/01/11 00:16:50;;;;;;;12.75;6.07;;;;;;;-0.44;100.00;102830.38;6352523;28;20055;-80
2022/01/11 00:19:52;;;;;;;12.55;5.85;;;;;;;-0.44;100.00;102832.94;6351841;28;20047;-80
2022/01/11 00:26:15;;;;;;;12.80;5.97;;;;;;;-0.41;100.00;102827.84;6352705;28;20056;-80
2022/01/11 00:29:17;;;;;;;7.90;4.82;;;;;;;-0.36;100.00;102821.09;6351695;28;20499;-80
2022/01/11 00:32:28;;;;;;;6.82;4.15;;;;;;;-0.33;100.00;102831.50;6347876;28;20051;-80
2022/01/11 00:35:39;;;;;;;8.27;4.68;;;;;;;-0.35;100.00;102826.31;6337270;28;20052;-81
2022/01/11 00:38:42;;;;;;;8.77;4.22;;;;;;;-0.33;100.00;102834.94;6351559;28;20051;-80
2022/01/11 00:41:45;;;;;;;10.02;4.93;;;;;;;-0.36;100.00;102834.91;6349149;27;20044;-80
2022/01/11 00:44:46;;;;;;;6.25;4.18;;;;;;;-0.46;100.00;102839.75;6350091;28;20490;-80
2022/01/11 00:47:48;;;;;;;7.47;4.53;;;;;;;-0.46;100.00;102843.22;6350085;28;20390;-80
2022/01/11 00:50:51;;;;;;;9.30;4.63;;;;;;;-0.53;100.00;102844.78;6351152;28;20044;-80
2022/01/11 00:53:52;;;;;;;8.65;3.70;;;;;;;-0.54;100.00;102850.78;6351056;27;20051;-79
2022/01/11 00:56:55;;;;;;;5.90;3.83;;;;;;;-0.53;100.00;102857.69;6351378;28;20044;-80
2022/01/11 00:59:56;;;;;;;9.18;5.32;;;;;;;-0.54;100.00;102852.50;6350738;28;20384;-80
2022/01/11 01:02:58;;;;;;;7.78;4.00;;;;;;;-0.52;100.00;102861.16;6349191;28;20047;-80
2022/01/11 01:05:59;;;;;;;5.57;3.65;;;;;;;-0.52;100.00;102872.34;6351163;27;20510;-80
2022/01/11 01:09:00;;;;;;;7.63;3.97;;;;;;;-0.51;100.00;102870.63;6348859;27;20059;-79
2022/01/11 01:12:04;;;;;;;7.47;3.95;;;;;;;-0.52;100.00;102876.63;6350855;28;20486;-80
2022/01/11 01:15:06;;;;;;;7.82;5.03;;;;;;;-0.54;100.00;102881.78;6351498;27;20051;-80
2022/01/11 01:18:10;;;;;;;6.55;4.30;;;;;;;-0.63;100.00;102872.91;6351242;28;20043;-80
2022/01/11 01:21:12;;;;;;;7.75;4.82;;;;;;;-0.62;100.00;102878.09;6350363;28;20043;-80
2022/01/11 01:24:13;;;;;;;6.22;3.40;;;;;;;-0.61;100.00;102879.84;6351160;28;20055;-79
2022/01/11 01:27:16;;;;;;;7.55;3.88;;;;;;;-0.61;100.00;102885.00;6350825;28;20052;-80
2022/01/11 01:30:18;;;;;;;7.15;4.45;;;;;;;-0.63;100.00;102885.81;6350537;28;20058;-80
2022/01/11 01:33:20;;;;;;;7.28;4.53;;;;;;;-0.64;100.00;102889.22;6340896;28;20055;-80
2022/01/11 01:36:22;;;;;;;5.65;4.43;;;;;;;-0.67;100.00;102892.59;6324893;28;20054;-79
2022/01/11 01:39:25;;;;;;;5.78;3.40;;;;;;;-0.70;100.00;102896.78;6324001;28;20047;-79
2022/01/11 01:42:30;;;;;;;9.68;4.47;;;;;;;-0.74;100.00;102900.13;6323177;28;20047;-79
2022/01/11 01:45:32;;;;;;;5.80;4.13;;;;;;;-0.76;100.00;102897.50;6322983;28;20089;-78
2022/01/11 01:48:35;;;;;;;6.80;4.03;;;;;;;-0.81;100.00;102899.97;6322873;28;20044;-79
2022/01/11 01:51:39;;;;;;;5.95;3.50;;;;;;;-0.83;100.00;102900.75;6323691;28;20138;-79
2022/01/11 01:54:40;;;;;;;7.93;4.03;;;;;;;-0.87;100.00;102899.78;6323876;28;20048;-80
2022/01/11 01:57:43;;;;;;;7.35;4.20;;;;;;;-0.87;100.00;102911.81;6325888;28;20055;-80
2022/01/11 02:00:51;;;;;;;5.93;4.47;;;;;;;-0.89;100.00;102903.16;6326509;28;20048;-80
2022/01/11 02:03:53;;;;;;;5.13;3.65;;;;;;;-0.88;100.00;102916.09;6326531;28;20048;-80
2022/01/11 02:06:54;;;;;;;5.60;3.78;;;;;;;-0.90;100.00;102919.47;6333041;28;20048;-81
2022/01/11 02:10:01;;;;;;;6.30;4.22;;;;;;;-0.99;100.00;102909.75;6341095;28;20044;-82
2022/01/11 02:13:04;;;;;;;8.43;4.72;;;;;;;-1.16;100.00;102909.25;6342470;28;20060;-81
2022/01/11 02:16:05;;;;;;;5.22;2.67;;;;;;;-1.26;100.00;102907.25;6341118;28;20056;-82
2022/01/11 02:19:07;;;;;;;7.72;4.55;;;;;;;-1.24;100.00;102915.88;6338787;28;20105;-81
2022/01/11 02:22:09;;;;;;;6.13;4.20;;;;;;;-1.15;100.00;102911.00;6338405;28;20040;-82
2022/01/11 02:25:11;;;;;;;8.52;4.25;;;;;;;-1.09;100.00;102915.47;6339637;28;20052;-82
2022/01/11 02:28:17;;;;;;;6.57;3.85;;;;;;;-1.05;100.00;102920.75;6339727;28;20048;-82
2022/01/11 02:31:19;;;;;;;6.57;3.65;;;;;;;-1.13;100.00;102922.25;6338601;28;20048;-82
2022/01/11 02:34:20;;;;;;;7.43;4.07;;;;;;;-1.11;100.00;102919.72;6357869;28;20054;-83
2022/01/11 02:37:23;;;;;;;6.00;4.28;;;;;;;-1.06;100.00;102918.13;6357810;28;20055;-82
2022/01/11 02:40:24;;;;;;;4.10;3.20;;;;;;;-1.09;100.00;102921.53;6364565;28;20411;-82
2022/01/11 02:43:26;;;;;;;6.80;4.13;;;;;;;-1.10;100.00;102924.91;6364959;28;20054;-83
2022/01/11 02:46:28;;;;;;;4.35;3.42;;;;;;;-1.07;100.00;102924.13;6348733;28;20051;-82
2022/01/11 02:49:30;;;;;;;6.63;4.32;;;;;;;-1.09;100.00;102930.94;6348555;28;20039;-82
2022/01/11 02:52:32;;;;;;;6.18;3.97;;;;;;;-1.09;100.00;102936.09;6347551;28;20106;-82
2022/01/11 02:55:37;;;;;;;7.53;4.43;;;;;;;-1.08;100.00;102941.31;6348980;28;20517;-82
2022/01/11 02:58:39;;;;;;;6.50;4.60;;;;;;;-1.10;100.00;102935.22;6348322;28;20040;-81
2022/01/11 03:01:40;;;;;;;9.00;5.65;;;;;;;-1.10;100.00;102940.38;6348048;28;20063;-81
2022/01/11 03:04:43;;;;;;;11.90;4.57;;;;;;;-1.07;100.00;102950.81;6346771;28;20396;-81
2022/01/11 03:07:46;;;;;;;5.93;4.00;;;;;;;-1.08;100.00;102948.19;6348532;28;20051;-81
2022/01/11 03:10:48;;;;;;;8.18;4.80;;;;;;;-1.13;100.00;102944.59;6348207;28;20050;-81
2022/01/11 03:13:50;;;;;;;7.72;4.32;;;;;;;-1.29;100.00;102944.13;6348018;28;20058;-81
2022/01/11 03:16:51;;;;;;;6.97;3.45;;;;;;;-1.34;100.00;102950.84;6349066;28;20425;-82
2022/01/11 03:19:53;;;;;;;6.40;4.22;;;;;;;-1.43;100.00;102957.41;6348643;28;20047;-81
2022/01/11 03:22:55;;;;;;;5.78;3.08;;;;;;;-1.41;100.00;102958.31;6349435;28;20044;-81
2022/01/11 03:26:00;;;;;;;3.65;3.22;;;;;;;-1.33;100.00;102960.31;6348504;28;20073;-81
2022/01/11 03:29:01;;;;;;;4.03;2.90;;;;;;;-1.24;100.00;102962.31;6349199;28;20078;-81
2022/01/11 03:32:03;;;;;;;6.13;4.35;;;;;;;-1.24;100.00;102964.03;6348708;28;20059;-81
2022/01/11 03:35:06;;;;;;;5.15;3.63;;;;;;;-1.21;100.00;102962.41;6346403;28;20047;-81
2022/01/11 03:38:12;;;;;;;6.38;4.20;;;;;;;-1.20;100.00;102966.75;6348801;28;20050;-82
2022/01/11 03:41:13;;;;;;;6.85;4.72;;;;;;;-1.23;100.00;102965.75;6348700;28;20620;-82
2022/01/11 03:44:15;;;;;;;7.28;4.32;;;;;;;-1.33;100.00;102968.06;6348360;28;20130;-81
2022/01/11 03:47:16;;;;;;;7.85;4.53;;;;;;;-1.37;100.00;102966.22;6349191;28;20043;-82
2022/01/11 03:50:18;;;;;;;7.10;4.13;;;;;;;-1.37;100.00;102963.63;6352851;28;20479;-82
2022/01/11 03:53:26;;;;;;;7.18;3.70;;;;;;;-1.40;100.00;102970.41;6353257;28;20433;-81
2022/01/11 03:56:27;;;;;;;6.47;4.15;;;;;;;-1.41;100.00;102963.47;6354315;28;20052;-82
2022/01/11 03:59:29;;;;;;;6.63;4.43;;;;;;;-1.43;100.00;102965.16;6353418;28;20051;-82
2022/01/11 04:02:30;;;;;;;8.75;4.53;;;;;;;-1.43;100.00;102965.16;6347679;28;20415;-82
2022/01/11 04:05:32;;;;;;;9.15;4.07;;;;;;;-1.41;100.00;102964.38;6328014;28;20059;-82
2022/01/11 04:08:34;;;;;;;7.68;3.95;;;;;;;-1.46;100.00;102965.91;6327050;28;20415;-82
2022/01/11 04:11:36;;;;;;;6.97;4.60;;;;;;;-1.51;100.00;102966.59;6338777;28;20048;-82
2022/01/11 04:14:38;;;;;;;6.20;3.70;;;;;;;-1.56;100.00;102969.91;6352410;28;20055;-82
2022/01/11 04:17:39;;;;;;;6.40;3.67;;;;;;;-1.62;100.00;102967.13;6352793;28;20051;-82
2022/01/11 04:20:41;;;;;;;5.65;4.60;;;;;;;-1.70;100.00;102970.28;6352996;28;20039;-82
2022/01/11 04:23:43;;;;;;;8.77;4.38;;;;;;;-1.72;100.00;102974.53;6348870;28;20044;-82
2022/01/11 04:26:45;;;;;;;7.22;4.50;;;;;;;-1.79;100.00;102979.47;6337618;28;20039;-81
2022/01/11 04:29:46;;;;;;;7.75;3.90;;;;;;;-1.73;100.00;102973.63;6336295;28;20040;-81
2022/01/11 04:32:48;;;;;;;8.23;3.90;;;;;;;-1.70;100.00;102981.47;6338809;28;20043;-81
2022/01/11 04:35:50;;;;;;;7.65;4.40;;;;;;;-1.71;100.00;102978.84;6345312;28;20048;-81
2022/01/11 04:38:53;;;;;;;7.95;4.45;;;;;;;-1.86;100.00;102966.34;6340742;28;20070;-81
2022/01/11 04:41:54;;;;;;;8.07;4.88;;;;;;;-1.89;100.00;102969.69;6342256;28;20058;-81
2022/01/11 04:44:56;;;;;;;7.22;4.45;;;;;;;-1.81;100.00;102977.69;6338555;28;20051;-82
2022/01/11 04:47:57;;;;;;;6.25;4.93;;;;;;;-1.69;100.00;102972.03;6344077;28;20058;-81
2022/01/11 04:50:59;;;;;;;5.47;3.90;;;;;;;-1.65;100.00;102977.34;6335548;28;20047;-82
2022/01/11 04:54:03;;;;;;;6.13;3.75;;;;;;;-1.65;100.00;102969.59;6336973;28;20048;-82
2022/01/11 04:57:05;;;;;;;6.28;3.97;;;;;;;-1.66;100.00;102978.16;6336773;28;20044;-82
2022/01/11 05:00:07;;;;;;;6.85;3.90;;;;;;;-1.70;100.00;102978.91;6340107;28;20042;-82
2022/01/11 05:03:09;;;;;;;9.90;3.78;;;;;;;-1.76;100.00;102981.28;6339861;28;20044;-82
2022/01/11 05:06:10;;;;;;;5.53;3.55;;;;;;;-1.75;100.00;102979.56;6337675;27;20509;-82
2022/01/11 05:09:13;;;;;;;9.57;4.15;;;;;;;-1.72;100.00;102983.13;6337762;28;20044;-82
2022/01/11 05:12:14;;;;;;;9.38;4.80;;;;;;;-1.64;100.00;102979.09;6336538;27;20407;-82
2022/01/11 05:15:16;;;;;;;8.88;4.50;;;;;;;-1.61;100.00;102984.34;6338941;28;20050;-82
2022/01/11 05:18:18;;;;;;;6.55;4.55;;;;;;;-1.59;100.00;102987.88;6342598;28;20769;-82
2022/01/11 05:21:20;;;;;;;11.38;5.03;;;;;;;-1.55;100.00;102986.25;6345391;27;20051;-82
2022/01/11 05:24:22;;;;;;;7.95;3.95;;;;;;;-1.56;100.00;102987.06;6352005;28;20082;-83
2022/01/11 05:27:24;;;;;;;5.82;3.65;;;;;;;-1.61;100.00;102992.09;6352327;28;20048;-82
2022/01/11 05:30:25;;;;;;;6.18;3.85;;;;;;;-1.72;100.00;102990.00;6352000;28;20067;-82
2022/01/11 05:33:27;;;;;;;5.95;4.00;;;;;;;-1.68;100.00;103000.47;6356953;28;20055;-83
2022/01/11 05:36:29;;;;;;;8.90;4.07;;;;;;;-1.65;100.00;102995.38;6354858;28;20054;-83
2022/01/11 05:39:31;;;;;;;8.77;5.18;;;;;;;-1.63;100.00;103000.63;6352127;28;20051;-82
2022/01/11 05:42:33;;;;;;;10.45;3.72;;;;;;;-1.63;100.00;103003.19;6349640;28;20055;-82
2022/01/11 05:45:34;;;;;;;6.72;4.05;;;;;;;-1.65;100.00;102997.09;6349311;28;20399;-83
2022/01/11 05:48:36;;;;;;;6.95;4.20;;;;;;;-1.68;100.00;102995.31;6350001;28;20414;-83
2022/01/11 05:51:37;;;;;;;6.63;3.75;;;;;;;-1.67;100.00;102996.19;6349713;28;20055;-83
2022/01/11 05:54:40;;;;;;;6.25;4.00;;;;;;;-1.72;100.00;103002.88;6350248;28;20051;-80
2022/01/11 05:57:42;;;;;;;6.85;4.50;;;;;;;-1.74;100.00;102997.66;6350511;28;20043;-81
2022/01/11 06:00:43;;;;;;;9.00;4.80;;;;;;;-1.76;100.00;103008.75;6350484;28;20560;-84
2022/01/11 06:03:45;;;;;;;7.38;3.45;;;;;;;-1.90;100.00;103013.44;6350558;28;20047;-85
2022/01/11 06:06:46;;;;;;;6.68;3.72;;;;;;;-1.98;100.00;103013.16;6349976;28;20058;-85
2022/01/11 06:09:49;;;;;;;6.38;3.95;;;;;;;-1.99;100.00;103010.53;6349153;28;20414;-85
2022/01/11 06:12:50;;;;;;;9.68;5.10;;;;;;;-1.89;100.00;103013.47;6323968;28;20051;-85
2022/01/11 06:15:52;;;;;;;5.10;3.47;;;;;;;-1.77;100.00;103017.28;6324507;28;20392;-85
2022/01/11 06:18:54;;;;;;;8.52;4.00;;;;;;;-1.84;100.00;103011.94;6325644;28;20051;-83
2022/01/11 06:21:55;;;;;;;7.68;5.05;;;;;;;-1.80;100.00;103018.06;6325170;28;20055;-84
2022/01/11 06:25:03;;;;;;;10.18;6.05;;;;;;;-1.72;100.00;103028.66;6324520;28;20051;-84
2022/01/11 06:28:05;;;;;;;7.10;5.03;;;;;;;-1.69;100.00;103029.59;6344061;28;20075;-84
2022/01/11 06:31:07;;;;;;;6.65;3.75;;;;;;;-1.65;100.00;103031.47;6349662;28;20040;-84
2022/01/11 06:34:10;;;;;;;7.05;4.30;;;;;;;-1.61;100.00;103030.75;6338296;28;20052;-84
2022/01/11 06:37:11;;;;;;;6.72;4.30;;;;;;;-1.59;100.00;103038.53;6338292;28;20128;-84
2022/01/11 06:40:16;;;;;;;7.47;4.55;;;;;;;-1.57;100.00;103042.94;6336462;28;20043;-84
2022/01/11 06:43:18;;;;;;;7.78;4.40;;;;;;;-1.57;100.00;103040.34;6333417;28;20055;-85
2022/01/11 06:46:21;;;;;;;6.55;3.55;;;;;;;-1.57;100.00;103047.22;6332933;28;20525;-84
2022/01/11 06:49:22;;;;;;;6.60;4.03;;;;;;;-1.53;100.00;103056.81;6341109;28;20486;-84
2022/01/11 06:52:24;;;;;;;8.35;4.20;;;;;;;-1.52;100.00;103061.13;6337922;28;20819;-84
2022/01/11 06:55:27;;;;;;;4.00;2.95;;;;;;;-1.52;100.00;103066.28;6330864;28;20048;-85
2022/01/11 06:58:28;;;;;;;6.38;3.80;;;;;;;-1.54;100.00;103067.94;6334872;28;20052;-84
2022/01/11 07:01:29;;;;;;;6.45;3.47;;;;;;;-1.56;100.00;103067.00;6341495;28;20044;-83
2022/01/11 07:04:38;;;;;;;5.13;3.28;;;;;;;-1.57;100.00;103070.41;6327729;28;20048;-83
2022/01/11 07:07:39;;;;;;;4.00;2.75;;;;;;;-1.61;100.00;103072.00;6335025;28;20047;-84
2022/01/11 07:10:42;;;;;;;4.95;2.33;;;;;;;-1.66;100.00;103057.22;6337875;28;20055;-83
2022/01/11 07:13:43;;;;;;;5.75;3.25;;;;;;;-1.67;100.00;103064.06;6324489;28;20075;-84
2022/01/11 07:16:48;;;;;;;4.28;2.80;;;;;;;-1.69;100.00;103069.97;6323983;28;20048;-83
2022/01/11 07:19:50;;;;;;;3.80;2.25;;;;;;;-1.75;100.00;103069.78;6324473;28;20040;-84
2022/01/11 07:22:51;;;;;;;6.97;3.35;;;;;;;-1.75;100.00;103073.22;6326275;28;20048;-84
2022/01/11 07:25:54;;;;;;;3.05;2.72;;;;;;;-1.72;100.00;103075.94;6341152;28;20040;-83
2022/01/11 07:28:55;;;;;;;2.83;2.30;;;;;;;-1.79;100.00;103072.25;6353705;28;20047;-84
2022/01/11 07:31:57;;;;;;;5.15;3.65;;;;;;;-1.83;100.00;103075.53;6353549;28;20073;-84
2022/01/11 07:34:58;;;;;;;6.20;3.10;;;;;;;-1.82;100.00;103089.28;6351470;28;20047;-83
2022/01/11 07:38:00;;;;;;;5.18;2.97;;;;;;;-1.77;100.00;103097.19;6353920;27;20055;-84
2022/01/11 07:41:05;;;;;;;6.70;3.50;;;;;;;-1.74;100.00;103099.88;6352821;28;20229;-83
2022/01/11 07:44:08;;;;;;;3.95;2.30;;;;;;;-1.72;100.00;103109.44;6351855;28;20075;-83
2022/01/11 07:47:10;;;;;;;7.18;3.80;;;;;;;-1.71;100.00;103111.19;6336833;28;20047;-83
2022/01/11 07:50:13;;;;;;;6.70;3.35;;;;;;;-1.71;100.00;103113.75;6349565;28;20084;-81
2022/01/11 07:53:14;;;;;;;5.10;3.95;;;;;;;-1.73;100.00;103106.78;6342709;28;20051;-78
2022/01/11 07:56:17;;;;;;;5.55;3.20;;;;;;;-1.70;100.00;103109.47;6330982;28;20050;-78
2022/01/11 07:59:18;;;;;;;5.35;3.60;;;;;;;-1.68;100.00;103112.97;6341779;28;20055;-79
2022/01/11 08:02:21;;;;;;;4.15;2.95;;;;;;;-1.66;100.00;103109.63;6349725;28;20044;-79
2022/01/11 08:05:23;;;;;;;5.80;3.45;;;;;;;-1.67;100.00;103109.59;6343424;28;20069;-80
2022/01/11 08:08:25;;;;;;;7.18;3.88;;;;;;;-1.66;100.00;103116.50;6330873;28;20040;-81
2022/01/11 08:11:28;;;;;;;4.60;3.30;;;;;;;-1.64;100.00;103104.53;6331670;28;20044;-81
2022/01/11 08:14:29;;;;;;;6.07;4.07;;;;;;;-1.71;100.00;103110.31;6337339;28;20051;-80
2022/01/11 08:17:31;;;;;;;4.72;2.92;;;;;;;-1.67;100.00;103114.75;6339019;28;20067;-78
2022/01/11 08:20:33;;;;;;;3.70;2.05;;;;;;;-1.58;100.00;103112.50;6338837;28;20047;-78
2022/01/11 08:23:34;;;;;;;5.88;3.33;;;;;;;-1.52;100.00;103107.53;6339259;28;20055;-79
2022/01/11 08:26:37;;;;;;;3.90;2.85;;;;;;;-1.48;100.00;103109.41;6344583;28;20058;-78
2022/01/11 08:29:39;;;;;;;7.28;3.08;;;;;;;-1.58;100.00;103110.78;6347052;28;20513;-80
2022/01/11 08:32:41;;;;;;;3.95;2.47;;;;;;;-1.58;100.00;103102.19;6366947;27;20054;-82
2022/01/11 08:35:42;;;;;;;4.45;3.00;;;;;;;-1.54;100.00;103096.31;6358501;28;20051;-81
2022/01/11 08:38:44;;;;;;;8.20;3.50;;;;;;;-1.44;100.00;103110.38;6367337;28;20255;-79
2022/01/11 08:41:47;;;;;;;4.97;3.10;;;;;;;-1.38;100.00;103111.47;6355877;28;20487;-77
2022/01/11 08:44:49;;;;;;;3.40;3.00;;;;;;;-1.31;100.00;103110.84;6363632;28;20062;-79
2022/01/11 08:47:51;;;;;;;5.75;3.28;;;;;;;-1.32;100.00;103097.88;6366583;27;20059;-79
2022/01/11 08:50:53;;;;;;;5.30;3.45;;;;;;;-1.23;100.00;103112.78;6351758;28;20043;-79
2022/01/11 08:53:54;;;;;;;5.93;3.53;;;;;;;-1.20;100.00;103115.50;6336862;28;20088;-81
2022/01/11 08:56:58;;;;;;;6.53;3.33;;;;;;;-1.17;100.00;103106.16;6341620;28;20047;-83
2022/01/11 08:59:59;;;;;;;5.40;2.75;;;;;;;-1.09;100.00;103116.69;6341649;28;20052;-79
2022/01/11 09:03:00;;;;;;;5.55;3.67;;;;;;;-1.08;100.00;103106.44;6351657;27;20054;-82
2022/01/11 09:06:04;;;;;;;3.63;2.33;;;;;;;-1.06;100.00;103111.66;6362153;28;20052;-80
2022/01/11 09:09:05;;;;;;;4.55;3.45;;;;;;;-1.02;100.00;103114.38;6363597;28;20074;-80
2022/01/11 09:12:12;;;;;;;3.55;2.65;;;;;;;-0.95;100.00;103112.00;6364244;28;20032;-79
2022/01/11 09:15:14;;;;;;;4.38;2.92;;;;;;;-0.97;100.00;103109.38;6366534;28;20032;-80
2022/01/11 09:18:16;;;;;;;5.80;3.45;;;;;;;-0.97;100.00;103108.50;6358217;28;20028;-79
2022/01/11 09:21:20;;;;;;;7.45;4.15;;;;;;;-0.95;100.00;103115.47;6372556;28;20052;-79
2022/01/11 09:24:24;;;;;;;7.72;3.88;;;;;;;-0.90;100.00;103120.78;6367266;28;20057;-79
2022/01/11 09:27:28;;;;;;;7.57;3.50;;;;;;;-0.83;100.00;103127.88;6373514;28;20047;-79
2022/01/11 09:30:29;;;;;;;4.65;2.70;;;;;;;-0.80;100.00;103126.28;6373974;28;20059;-80
2022/01/11 09:33:31;;;;;;;4.13;3.17;;;;;;;-0.78;100.00;103134.94;6373427;28;20040;-78
2022/01/11 09:36:34;;;;;;;9.05;4.93;;;;;;;-0.71;100.00;103138.59;6362034;28;20055;-77
2022/01/11 09:39:38;;;;;;;6.32;3.83;;;;;;;-0.69;100.00;103139.50;6364183;28;20048;-78
2022/01/11 09:42:41;;;;;;;4.20;3.00;;;;;;;-0.65;100.00;103140.50;6370868;28;20043;-77
2022/01/11 09:45:42;;;;;;;6.65;3.10;;;;;;;-0.68;100.00;103135.22;6365990;28;20059;-76
2022/01/11 09:48:45;;;;;;;5.07;3.17;;;;;;;-0.64;100.00;103147.41;6362687;28;20027;-79
2022/01/11 09:51:46;;;;;;;4.65;3.00;;;;;;;-0.62;100.00;103138.91;6362313;28;20057;-81
2022/01/11 09:54:48;;;;;;;8.50;4.35;;;;;;;-0.55;100.00;103140.81;6338650;28;20051;-74
2022/01/11 09:57:51;;;;;;;7.32;3.75;;;;;;;-0.63;100.00;103129.41;6320476;28;20522;-82
2022/01/11 10:00:54;;;;;;;5.20;3.42;;;;;;;-0.61;100.00;103134.59;6322515;28;20055;-79
2022/01/11 10:03:58;;;;;;;6.65;3.55;;;;;;;-0.52;100.00;103134.88;6346979;28;20050;-83
2022/01/11 10:07:03;;;;;;;8.52;4.07;;;;;;;-0.46;100.00;103129.91;6361411;28;20031;-80
2022/01/11 10:10:10;;;;;;;6.15;3.90;;;;;;;-0.39;100.00;103134.44;6368615;28;20055;-80
2022/01/11 10:13:29;;;;;;;6.63;3.75;;;;;;;-0.36;100.00;103128.50;6369445;28;20079;-79
2022/01/11 10:16:30;;;;;;;6.70;3.25;;;;;;;-0.32;100.00;103136.38;6369838;28;20047;-79
2022/01/11 10:19:32;;;;;;;6.78;3.78;;;;;;;-0.30;100.00;103128.66;6369997;28;20046;-79
2022/01/11 10:22:33;;;;;;;5.70;2.97;;;;;;;-0.26;100.00;103125.34;6369725;28;20048;-79
2022/01/11 10:25:43;;;;;;;6.82;3.70;;;;;;;-0.22;100.00;103129.78;6352288;28;20044;-77
2022/01/11 10:28:45;;;;;;;6.30;3.42;;;;;;;-0.21;100.00;103138.41;6341376;28;20052;-78
2022/01/11 10:31:48;;;;;;;12.82;4.43;;;;;;;-0.13;100.00;103142.97;6335670;28;20044;-77
2022/01/11 10:34:51;;;;;;;7.30;4.28;;;;;;;-0.09;100.00;103131.91;6349211;28;20038;-79
2022/01/11 10:37:54;;;;;;;8.98;4.35;;;;;;;-0.01;100.00;103129.50;6362218;28;20058;-78
2022/01/11 10:40:56;;;;;;;6.95;3.88;;;;;;;0.05;100.00;103132.28;6365898;28;20039;-78
2022/01/11 10:43:58;;;;;;;8.07;4.00;;;;;;;0.12;100.00;103135.91;6365922;28;20055;-77
2022/01/11 10:47:02;;;;;;;6.60;3.13;;;;;;;0.10;100.00;103138.47;6363955;28;20059;-77
2022/01/11 10:50:08;;;;;;;9.43;5.07;;;;;;;0.14;100.00;103136.84;6358545;28;20048;-77
2022/01/11 10:53:13;;;;;;;6.47;3.58;;;;;;;0.16;100.00;103145.50;6348513;28;20059;-76
2022/01/11 10:56:16;;;;;;;6.82;3.85;;;;;;;0.17;100.00;103142.97;6360097;28;20108;-76
2022/01/11 10:59:18;;;;;;;18.80;5.53;;;;;;;0.14;100.00;103148.06;6363032;28;20044;-78
2022/01/11 11:02:25;;;;;;;8.40;3.28;;;;;;;0.13;100.00;103141.13;6352608;28;20051;-77
2022/01/11 11:05:30;;;;;;;7.03;3.92;;;;;;;0.14;100.00;103135.13;6336195;28;20112;-77
2022/01/11 11:08:36;;;;;;;8.95;4.00;;;;;;;0.09;100.00;103128.06;6338457;28;20044;-79
2022/01/11 11:11:37;;;;;;;7.28;3.25;;;;;;;0.18;100.00;103142.16;6350073;28;20047;-78
2022/01/11 11:14:50;;;;;;;12.20;3.97;;;;;;;0.30;100.00;103132.97;6363578;28;20047;-78
2022/01/11 11:17:52;;;;;;;6.10;2.85;;;;;;;0.54;100.00;103140.50;6363677;27;20051;-78
2022/01/11 11:20:54;;;;;;;7.45;4.13;;;;;;;0.73;100.00;103146.22;6362706;28;20036;-80
2022/01/11 11:23:58;;;;;;;8.60;4.63;;;;;;;0.83;100.00;103146.47;6363293;28;20078;-80
2022/01/11 11:26:59;;;;;;;6.65;3.60;;;;;;;0.90;100.00;103143.16;6360609;28;20058;-78
2022/01/11 11:30:02;;;;;;;7.72;4.28;;;;;;;0.97;100.00;103139.91;6368593;28;20047;-79
2022/01/11 11:33:03;;;;;;;5.97;3.50;;;;;;;1.01;100.00;103137.44;6375122;28;20032;-79
2022/01/11 11:36:05;;;;;;;6.70;4.35;;;;;;;1.01;100.00;103140.03;6370045;28;20069;-78
2022/01/11 11:39:11;;;;;;;8.60;3.67;;;;;;;1.06;100.00;103134.09;6371054;27;20048;-78
2022/01/11 11:42:17;;;;;;;6.07;3.28;;;;;;;1.04;100.00;103127.97;6368798;28;20108;-78
2022/01/11 11:45:23;;;;;;;10.20;3.35;;;;;;;0.96;100.00;103120.03;6357036;28;20044;-79
2022/01/11 11:48:24;;;;;;;10.45;4.95;;;;;;;0.89;100.00;103120.72;6363891;28;20051;-78
2022/01/11 11:51:38;;;;;;;5.55;3.08;;;;;;;0.84;100.00;103122.31;6359458;28;20044;-77
2022/01/11 11:54:48;;;;;;;6.03;3.60;;;;;;;0.76;100.00;103114.34;6359365;27;20058;-77
2022/01/11 11:57:51;;;;;;;7.90;3.88;;;;;;;0.87;100.00;103128.44;6359558;28;20047;-79
2022/01/11 12:00:56;;;;;;;8.38;4.63;;;;;;;0.88;100.00;103117.25;6363771;28;20482;-80
2022/01/11 12:03:57;;;;;;;6.63;3.17;;;;;;;0.96;100.00;103128.69;6337835;28;20052;-80
2022/01/11 12:07:19;;;;;;;10.13;3.95;;;;;;;1.08;100.00;103125.50;6340544;28;20040;-79
2022/01/11 12:10:28;;;;;;;9.10;3.92;;;;;;;1.29;100.00;103119.09;6360707;28;20053;-79
2022/01/11 12:13:42;;;;;;;11.18;5.25;;;;;;;1.40;100.00;103112.44;6364190;28;20104;-79
2022/01/11 12:16:45;;;;;;;5.97;3.63;;;;;;;1.49;100.00;103110.91;6365735;28;20059;-78
2022/01/11 12:19:48;;;;;;;10.38;4.15;;;;;;;1.49;100.00;103107.44;6356709;28;20043;-79
2022/01/11 12:22:53;;;;;;;8.60;4.03;;;;;;;1.55;100.00;103099.84;6343482;28;20040;-78
2022/01/11 12:26:10;;;;;;;5.75;3.55;;;;;;;1.60;100.00;103106.00;6356862;28;20055;-78
2022/01/11 12:29:25;;;;;;;7.80;3.95;;;;;;;1.60;100.00;103097.34;6351072;28;20112;-81
2022/01/11 12:32:31;;;;;;;8.52;3.92;;;;;;;1.59;100.00;103099.06;6352258;28;21414;-78
2022/01/11 12:35:33;;;;;;;6.78;3.58;;;;;;;1.57;100.00;103087.78;6359158;28;20050;-77
2022/01/11 12:38:37;;;;;;;7.68;3.85;;;;;;;1.53;100.00;103089.41;6367603;27;20056;-80
2022/01/11 12:41:38;;;;;;;8.60;4.03;;;;;;;1.43;100.00;103082.28;6358204;28;20048;-80
2022/01/11 12:48:08;;;;;;;6.75;4.03;;;;;;;1.29;100.00;103095.78;6358872;28;20051;-83
2022/01/11 12:51:12;;;;;;;11.25;4.97;;;;;;;1.23;100.00;103091.34;6357365;28;20054;-79
2022/01/11 12:54:20;;;;;;;4.53;3.17;;;;;;;1.20;100.00;103099.03;6357949;27;20055;-78
2022/01/11 12:57:24;;;;;;;8.00;3.47;;;;;;;1.12;100.00;103087.63;6358971;28;20391;-78
2022/01/11 13:00:26;;;;;;;7.88;3.45;;;;;;;1.13;100.00;103092.81;6337340;27;20040;-80
2022/01/11 13:03:28;;;;;;;4.55;2.67;;;;;;;1.18;100.00;103092.94;6336944;28;20052;-78
2022/01/11 13:06:31;;;;;;;5.38;3.58;;;;;;;1.19;100.00;103095.56;6350155;28;20047;-81
2022/01/11 13:09:34;;;;;;;8.40;3.78;;;;;;;1.22;100.00;103094.75;6365226;27;20044;-81
2022/01/11 13:12:37;;;;;;;9.93;3.92;;;;;;;1.24;100.00;103087.91;6350823;28;20340;-80
2022/01/11 13:15:40;;;;;;;12.15;3.90;;;;;;;1.22;100.00;103084.38;6358485;28;20043;-80
2022/01/11 13:18:43;;;;;;;6.63;3.55;;;;;;;1.24;100.00;103088.78;6355485;28;20044;-80
2022/01/11 13:21:45;;;;;;;8.63;3.55;;;;;;;1.29;100.00;103086.28;6344058;28;20035;-79
2022/01/11 13:24:47;;;;;;;11.00;4.00;;;;;;;1.31;100.00;103082.00;6337705;28;20055;-79
2022/01/11 13:27:53;;;;;;;8.50;3.97;;;;;;;1.34;100.00;103083.81;6322838;28;20418;-79
2022/01/11 13:30:54;;;;;;;10.05;4.30;;;;;;;1.34;100.00;103083.81;6335703;28;20044;-79
2022/01/11 13:34:02;;;;;;;8.13;3.63;;;;;;;1.40;100.00;103089.97;6349365;28;20383;-79
2022/01/11 13:37:04;;;;;;;6.53;3.55;;;;;;;1.42;100.00;103082.28;6348544;28;20414;-79
2022/01/11 13:40:09;;;;;;;8.07;4.00;;;;;;;1.44;100.00;103088.34;6347595;28;20052;-79
2022/01/11 13:43:13;;;;;;;9.25;4.25;;;;;;;1.49;100.00;103084.13;6348202;28;20044;-79
2022/01/11 13:46:16;;;;;;;6.13;3.25;;;;;;;1.53;100.00;103084.22;6347508;27;20100;-78
2022/01/11 13:49:20;;;;;;;8.40;3.75;;;;;;;1.59;100.00;103088.69;6345610;28;20055;-79
2022/01/11 13:52:24;;;;;;;7.47;3.78;;;;;;;1.64;100.00;103075.84;6338889;28;20039;-79
2022/01/11 13:55:25;;;;;;;6.68;3.33;;;;;;;1.66;100.00;103075.00;6348692;28;20054;-77
2022/01/11 13:58:29;;;;;;;9.65;3.92;;;;;;;1.71;100.00;103080.28;6347161;28;20052;-77
2022/01/11 14:01:30;;;;;;;5.22;2.67;;;;;;;1.73;100.00;103089.84;6347436;28;20514;-79
2022/01/11 14:04:39;;;;;;;7.22;4.22;;;;;;;1.70;100.00;103084.59;6347135;28;20047;-78
2022/01/11 14:07:41;;;;;;;9.00;3.83;;;;;;;1.69;100.00;103082.88;6347385;28;20052;-77
2022/01/11 14:10:53;;;;;;;11.30;3.70;;;;;;;1.71;100.00;103085.47;6346880;28;20043;-76